Terminal Aerodrome Forecast
Issued by NWS

Home | Current Version | Previous Version | Graphics & Text | Print | Product List | Glossary On
Versions: 1 2 3 4 5 6 7 8 9 10 11 12 13 14 15 16 17 18
000
FTUS43 KMPX 312336
TAFRNH
TAF
KRNH 312336Z 0100/0124 VRB03KT P6SM SKC
     FM010800 12007KT P6SM SKC
     FM011500 16017G28KT P6SM SCT250
     FM012200 19017G26KT P6SM BKN060 OVC100 PROB30 0122/0124 5SM
      SHRA OVC035=

USA.gov is the U.S. government's official web portal to all federal, state and local government web resources and services.